Time;durP1;ratioP1;P1;durP2;ratioP2;P2;SDS_P1;SDS_P2;PMS_P1;PMS_P2;Temp;Humidity;BMP_temperature;BMP_pressure;BME280_temperature;BME280_humidity;BME280_pressure;Samples;Min_cycle;Max_cycle;Signal;HPM_P1;HPM_P2
2021/10/27 00:01:45;;;;;;;47.65;27.35;;;;;;;3.49;100.00;101237.53;5012600;28;20046;-70
2021/10/27 00:04:13;;;;;;;43.80;26.85;;;;;;;3.38;100.00;101235.94;5013215;28;20046;-71
2021/10/27 00:06:42;;;;;;;51.58;26.85;;;;;;;3.49;100.00;101238.41;5012856;28;20439;-71
2021/10/27 00:09:10;;;;;;;46.83;27.02;;;;;;;3.42;100.00;101236.75;5013057;28;20050;-71
2021/10/27 00:11:40;;;;;;;43.60;24.67;;;;;;;3.42;100.00;101242.88;5012923;28;20502;-71
2021/10/27 00:14:09;;;;;;;46.30;25.60;;;;;;;3.33;100.00;101239.53;5012908;28;20046;-71
2021/10/27 00:16:37;;;;;;;49.97;26.67;;;;;;;3.17;100.00;101233.59;5012772;28;20065;-72
2021/10/27 00:19:06;;;;;;;46.30;27.48;;;;;;;3.14;100.00;101233.63;5012644;28;20092;-71
2021/10/27 00:21:34;;;;;;;47.35;26.02;;;;;;;3.11;100.00;101236.31;5012699;28;20044;-72
2021/10/27 00:24:02;;;;;;;47.20;25.20;;;;;;;3.18;100.00;101235.31;5013028;28;20050;-73
2021/10/27 00:26:31;;;;;;;42.78;25.10;;;;;;;3.28;100.00;101234.31;5012786;28;20121;-75
2021/10/27 00:29:00;;;;;;;40.42;24.20;;;;;;;3.66;100.00;101246.91;5012790;28;20054;-68
2021/10/27 00:31:28;;;;;;;46.65;24.92;;;;;;;3.66;100.00;101246.03;5012785;28;20431;-75
2021/10/27 00:33:57;;;;;;;43.70;25.60;;;;;;;3.57;100.00;101241.78;5014714;28;20053;-71
2021/10/27 00:36:25;;;;;;;40.88;24.45;;;;;;;3.54;100.00;101238.31;5015912;28;20057;-70
2021/10/27 00:38:54;;;;;;;44.58;23.55;;;;;;;3.52;100.00;101237.47;5015875;28;20053;-69
2021/10/27 00:41:22;;;;;;;38.35;22.92;;;;;;;3.35;100.00;101235.94;5016125;28;20037;-70
2021/10/27 00:43:51;;;;;;;39.80;23.73;;;;;;;3.22;100.00;101237.03;5015597;28;20084;-71
2021/10/27 00:46:22;;;;;;;43.50;24.33;;;;;;;3.10;100.00;101224.03;5015713;28;20061;-71
2021/10/27 00:48:52;;;;;;;50.42;25.55;;;;;;;3.08;100.00;101233.72;5015751;28;20053;-71
2021/10/27 00:51:22;;;;;;;45.08;25.70;;;;;;;3.08;100.00;101229.31;5015884;28;20046;-70
2021/10/27 00:53:50;;;;;;;46.10;26.73;;;;;;;2.98;100.00;101229.47;5015643;28;20057;-70
2021/10/27 00:56:19;;;;;;;44.67;25.92;;;;;;;2.93;100.00;101226.03;5015957;28;20053;-69
2021/10/27 00:58:47;;;;;;;45.13;26.92;;;;;;;2.95;100.00;101234.78;5015121;28;20130;-69
2021/10/27 01:01:16;;;;;;;48.35;27.98;;;;;;;2.93;100.00;101231.28;5015443;28;20046;-69
2021/10/27 01:03:46;;;;;;;51.33;28.42;;;;;;;2.86;100.00;101220.81;5015359;28;20046;-69
2021/10/27 01:06:14;;;;;;;47.38;27.88;;;;;;;2.80;100.00;101220.06;5015581;28;20060;-69
2021/10/27 01:08:43;;;;;;;49.35;26.67;;;;;;;2.92;100.00;101216.38;5015433;28;20084;-70
2021/10/27 01:11:12;;;;;;;49.15;27.05;;;;;;;3.04;100.00;101209.16;5015770;28;20053;-69
2021/10/27 01:13:40;;;;;;;53.67;29.55;;;;;;;3.00;100.00;101206.63;5015520;28;20448;-71
2021/10/27 01:16:08;;;;;;;52.05;28.58;;;;;;;2.92;100.00;101211.13;5015505;28;20042;-71
2021/10/27 01:18:37;;;;;;;54.40;27.92;;;;;;;2.85;100.00;101212.94;5014997;28;20085;-71
2021/10/27 01:21:07;;;;;;;57.58;29.45;;;;;;;2.80;100.00;101210.38;5015518;28;20046;-68
2021/10/27 01:23:36;;;;;;;54.20;28.88;;;;;;;2.76;100.00;101206.03;5015061;28;20045;-69
2021/10/27 01:26:06;;;;;;;50.38;27.60;;;;;;;2.75;100.00;101200.78;5015766;28;20050;-70
2021/10/27 01:28:39;;;;;;;54.28;29.08;;;;;;;2.74;100.00;101199.03;5015834;28;20050;-73
2021/10/27 01:31:09;;;;;;;48.22;28.48;;;;;;;2.73;100.00;101195.53;5015983;28;20038;-72
2021/10/27 01:33:39;;;;;;;51.20;28.45;;;;;;;2.71;100.00;101201.72;5015104;28;20434;-70
2021/10/27 01:36:09;;;;;;;54.65;29.15;;;;;;;2.70;100.00;101199.97;5014814;28;20100;-70
2021/10/27 01:38:38;;;;;;;52.42;29.25;;;;;;;2.69;100.00;101212.25;5014916;28;20041;-69
2021/10/27 01:41:07;;;;;;;47.00;26.77;;;;;;;2.77;100.00;101220.94;5015012;28;20048;-69
2021/10/27 01:43:48;;;;;;;48.53;26.80;;;;;;;2.59;100.00;101226.44;5014485;28;20042;-71
2021/10/27 01:46:17;;;;;;;48.78;26.98;;;;;;;2.43;100.00;101219.63;5014339;28;20064;-70
2021/10/27 01:48:46;;;;;;;48.50;26.08;;;;;;;2.65;100.00;101220.22;4996874;28;20579;-70
2021/10/27 01:51:15;;;;;;;45.65;24.92;;;;;;;2.84;100.00;101212.06;5014877;28;20492;-69
2021/10/27 01:53:44;;;;;;;51.35;26.75;;;;;;;2.86;100.00;101215.56;5014497;28;20153;-70
2021/10/27 01:56:12;;;;;;;49.83;26.77;;;;;;;2.75;100.00;101201.66;5014790;28;20501;-69
2021/10/27 01:58:41;;;;;;;45.92;26.23;;;;;;;2.93;100.00;101210.22;5014271;28;20480;-69
2021/10/27 02:01:10;;;;;;;45.63;27.63;;;;;;;2.77;100.00;101189.31;5014624;28;20062;-70
2021/10/27 02:03:38;;;;;;;47.80;26.98;;;;;;;2.96;100.00;101207.53;4996538;28;20057;-69
2021/10/27 02:06:06;;;;;;;51.22;27.10;;;;;;;2.85;100.00;101219.09;5014259;28;20042;-67
2021/10/27 02:08:36;;;;;;;49.10;27.63;;;;;;;2.79;100.00;101223.56;5014436;28;20057;-67
2021/10/27 02:11:05;;;;;;;51.22;27.05;;;;;;;2.71;100.00;101228.06;5014225;28;20045;-67
2021/10/27 02:13:51;;;;;;;55.75;27.63;;;;;;;2.54;100.00;101217.72;5014165;28;20045;-68
2021/10/27 02:16:19;;;;;;;56.95;29.40;;;;;;;2.40;100.00;101230.16;5014419;28;20053;-66
2021/10/27 02:18:47;;;;;;;43.38;25.80;;;;;;;2.58;100.00;101229.97;5013616;28;20045;-67
2021/10/27 02:21:15;;;;;;;48.78;27.13;;;;;;;2.69;100.00;101237.75;5014277;28;20077;-67
2021/10/27 02:23:45;;;;;;;46.38;26.63;;;;;;;2.66;100.00;101236.03;5013874;28;20077;-67
2021/10/27 02:26:14;;;;;;;46.08;25.17;;;;;;;2.79;100.00;101240.22;5014230;28;20478;-69
2021/10/27 02:28:42;;;;;;;51.08;27.65;;;;;;;2.49;100.00;101244.09;5013580;28;20495;-69
2021/10/27 02:31:12;;;;;;;48.63;26.10;;;;;;;2.36;100.00;101239.00;5013905;28;20049;-68
2021/10/27 02:33:41;;;;;;;47.90;26.65;;;;;;;2.20;100.00;101243.56;5013643;28;20046;-70
2021/10/27 02:36:09;;;;;;;49.65;26.70;;;;;;;2.37;100.00;101240.75;5014144;28;20049;-68
2021/10/27 02:38:42;;;;;;;46.13;26.13;;;;;;;2.33;100.00;101233.78;4996605;28;20088;-68
2021/10/27 02:41:14;;;;;;;46.45;26.60;;;;;;;2.20;100.00;101228.63;4996152;28;20060;-69
2021/10/27 02:43:43;;;;;;;45.90;27.15;;;;;;;2.21;100.00;101230.38;5013629;28;20074;-69
2021/10/27 02:46:11;;;;;;;47.40;26.75;;;;;;;2.33;100.00;101228.53;5013551;28;20058;-69
2021/10/27 02:48:40;;;;;;;48.35;26.42;;;;;;;2.32;100.00;101230.28;4996013;28;20041;-77
2021/10/27 02:51:09;;;;;;;45.53;27.05;;;;;;;2.36;100.00;101231.97;5013743;28;20050;-68
2021/10/27 02:53:37;;;;;;;42.05;26.13;;;;;;;2.38;100.00;101229.31;5013870;28;20044;-68
2021/10/27 02:56:05;;;;;;;46.42;26.20;;;;;;;2.39;100.00;101233.69;5012909;28;20046;-68
2021/10/27 02:58:37;;;;;;;46.13;26.48;;;;;;;2.29;100.00;101239.06;5013724;28;20046;-69
2021/10/27 03:01:06;;;;;;;48.03;26.60;;;;;;;2.13;100.00;101226.97;5013556;28;20044;-69
2021/10/27 03:03:35;;;;;;;48.60;27.38;;;;;;;2.04;100.00;101237.59;5013603;28;20046;-69
2021/10/27 03:06:03;;;;;;;47.60;27.05;;;;;;;1.99;100.00;101244.63;5013334;28;20042;-69
2021/10/27 03:08:32;;;;;;;48.85;26.70;;;;;;;2.02;100.00;101241.97;5013538;28;20376;-69
2021/10/27 03:11:00;;;;;;;44.15;25.70;;;;;;;2.31;100.00;101246.94;5013134;28;20049;-69
2021/10/27 03:13:29;;;;;;;47.50;26.77;;;;;;;2.26;100.00;101249.63;5013371;28;20056;-69
2021/10/27 03:15:58;;;;;;;46.58;26.52;;;;;;;2.07;100.00;101252.47;5013245;28;20096;-71
2021/10/27 03:18:27;;;;;;;48.97;26.52;;;;;;;1.98;100.00;101248.16;5013771;28;20053;-71
2021/10/27 03:20:56;;;;;;;44.22;26.13;;;;;;;1.86;100.00;101243.00;5013054;28;20438;-71
2021/10/27 03:23:24;;;;;;;45.35;27.45;;;;;;;1.81;100.00;101239.53;5013523;28;20365;-71
2021/10/27 03:25:52;;;;;;;45.53;26.30;;;;;;;1.80;100.00;101243.06;5013308;28;20046;-71
2021/10/27 03:28:20;;;;;;;47.80;26.17;;;;;;;1.73;100.00;101243.09;5013022;28;20050;-71
2021/10/27 03:30:51;;;;;;;50.03;26.70;;;;;;;1.82;100.00;101254.44;5013033;28;20442;-71
2021/10/27 03:33:21;;;;;;;46.28;25.35;;;;;;;1.91;100.00;101252.59;5013265;28;20050;-71
2021/10/27 03:35:49;;;;;;;48.97;26.33;;;;;;;1.83;100.00;101259.66;5013172;28;20038;-70
2021/10/27 03:38:18;;;;;;;46.20;26.33;;;;;;;1.87;100.00;101268.44;5013146;28;20451;-70
2021/10/27 03:40:46;;;;;;;47.38;25.73;;;;;;;1.86;100.00;101264.06;5012812;28;20065;-73
2021/10/27 03:43:15;;;;;;;52.72;28.00;;;;;;;1.89;100.00;101267.53;5013102;28;20141;-72
2021/10/27 03:45:44;;;;;;;47.70;25.85;;;;;;;1.91;100.00;101270.13;5013114;28;20077;-78
2021/10/27 03:48:12;;;;;;;44.40;26.35;;;;;;;1.83;100.00;101264.06;5013458;28;20503;-71
2021/10/27 03:50:42;;;;;;;55.90;27.13;;;;;;;1.81;100.00;101263.22;5013118;28;20042;-70
2021/10/27 03:53:10;;;;;;;49.42;27.73;;;;;;;1.95;100.00;101274.50;5013003;28;20080;-70
2021/10/27 03:55:38;;;;;;;43.13;25.50;;;;;;;2.11;100.00;101276.09;5012900;28;20046;-70
2021/10/27 03:58:06;;;;;;;47.80;26.05;;;;;;;2.06;100.00;101284.94;5012460;28;20108;-69
2021/10/27 04:00:36;;;;;;;51.53;27.75;;;;;;;1.89;100.00;101280.69;5012903;28;20133;-69
2021/10/27 04:03:05;;;;;;;49.22;26.83;;;;;;;1.94;100.00;101281.53;5012479;28;20096;-67
2021/10/27 04:05:34;;;;;;;44.70;26.30;;;;;;;1.72;100.00;101286.06;5012566;28;20050;-67
2021/10/27 04:08:04;;;;;;;50.10;26.73;;;;;;;1.61;100.00;101290.53;5013414;28;20088;-68
2021/10/27 04:10:33;;;;;;;49.33;27.60;;;;;;;1.61;100.00;101295.78;5016984;28;20078;-68
2021/10/27 04:13:01;;;;;;;45.05;25.77;;;;;;;1.55;100.00;101290.59;5018692;28;20049;-68
2021/10/27 04:15:29;;;;;;;50.05;27.20;;;;;;;1.57;100.00;101293.22;5000302;28;20060;-70
2021/10/27 04:17:59;;;;;;;44.30;25.73;;;;;;;1.61;100.00;101301.06;5016682;28;20050;-70
2021/10/27 04:20:28;;;;;;;42.58;24.17;;;;;;;1.82;100.00;101289.50;5016898;28;20046;-70
2021/10/27 04:22:56;;;;;;;47.08;26.10;;;;;;;1.73;100.00;101290.44;5016285;28;20522;-70
2021/10/27 04:25:26;;;;;;;43.40;24.70;;;;;;;1.68;100.00;101280.84;5017348;28;20495;-71
2021/10/27 04:27:54;;;;;;;48.75;26.05;;;;;;;1.71;100.00;101286.94;5016013;28;20501;-72
2021/10/27 04:30:22;;;;;;;47.50;25.88;;;;;;;1.83;100.00;101293.00;5015981;28;20089;-72
2021/10/27 04:32:50;;;;;;;45.55;25.55;;;;;;;1.93;100.00;101292.03;5016193;28;20042;-72
2021/10/27 04:35:19;;;;;;;48.20;26.98;;;;;;;1.93;100.00;101286.78;4998224;28;20074;-70
2021/10/27 04:37:48;;;;;;;46.05;25.90;;;;;;;2.00;100.00;101289.34;5015995;28;20086;-76
2021/10/27 04:40:19;;;;;;;42.00;24.75;;;;;;;1.93;100.00;101286.78;5015829;28;20455;-71
2021/10/27 04:42:50;;;;;;;47.05;25.10;;;;;;;1.87;100.00;101294.75;5016076;28;20046;-72
2021/10/27 04:45:19;;;;;;;49.33;27.67;;;;;;;1.70;100.00;101295.72;5016469;28;20065;-70
2021/10/27 04:47:48;;;;;;;47.45;26.77;;;;;;;1.72;100.00;101299.22;5016041;28;20046;-73
2021/10/27 04:50:16;;;;;;;52.15;27.73;;;;;;;1.63;100.00;101299.28;5016195;28;20050;-69
2021/10/27 04:52:44;;;;;;;45.83;26.23;;;;;;;1.58;100.00;101301.09;5015947;28;20192;-69
2021/10/27 04:55:13;;;;;;;43.38;25.10;;;;;;;1.72;100.00;101298.34;5015253;28;20045;-70
2021/10/27 04:57:41;;;;;;;42.75;25.48;;;;;;;1.76;100.00;101293.97;5015708;28;20137;-65
2021/10/27 05:00:12;;;;;;;44.63;25.20;;;;;;;1.90;100.00;101297.34;5014927;28;20554;-65
2021/10/27 05:02:41;;;;;;;47.13;25.98;;;;;;;1.77;100.00;101286.06;5015751;28;20045;-68
2021/10/27 05:05:09;;;;;;;47.60;25.30;;;;;;;1.70;100.00;101273.81;5015241;28;20123;-69
2021/10/27 05:07:37;;;;;;;44.70;26.05;;;;;;;1.71;100.00;101281.69;4997787;28;20506;-70
2021/10/27 05:10:08;;;;;;;47.20;26.58;;;;;;;1.67;100.00;101287.00;5015282;28;20097;-69
2021/10/27 05:12:37;;;;;;;49.25;25.58;;;;;;;1.94;100.00;101294.69;5015222;28;20080;-67
2021/10/27 05:15:07;;;;;;;44.40;25.48;;;;;;;2.15;100.00;101305.91;5015129;28;20049;-67
2021/10/27 05:17:37;;;;;;;43.55;25.23;;;;;;;2.18;100.00;101311.13;4997730;28;20137;-67
2021/10/27 05:20:06;;;;;;;44.25;24.45;;;;;;;2.25;100.00;101312.84;5014753;28;20115;-68
2021/10/27 05:22:35;;;;;;;42.45;23.85;;;;;;;2.15;100.00;101314.69;5015005;28;20045;-67
2021/10/27 05:25:04;;;;;;;43.97;24.98;;;;;;;1.95;100.00;101327.13;5015095;28;20052;-69
2021/10/27 05:27:34;;;;;;;45.50;25.77;;;;;;;1.90;100.00;101324.53;5015281;28;20129;-68
2021/10/27 05:30:02;;;;;;;48.83;25.48;;;;;;;1.79;100.00;101336.88;5014218;28;20117;-66
2021/10/27 05:32:33;;;;;;;44.72;26.45;;;;;;;1.85;100.00;101341.25;5014448;28;20495;-68
2021/10/27 05:35:04;;;;;;;43.75;25.88;;;;;;;1.90;100.00;101339.44;4996648;28;20138;-67
2021/10/27 05:37:38;;;;;;;53.33;26.75;;;;;;;1.94;100.00;101349.06;5014586;28;20116;-67
2021/10/27 05:40:08;;;;;;;45.13;25.90;;;;;;;1.90;100.00;101356.09;5014465;28;20038;-67
2021/10/27 05:42:39;;;;;;;47.35;25.50;;;;;;;1.93;100.00;101355.19;5012244;28;20042;-65
2021/10/27 05:45:08;;;;;;;50.20;26.17;;;;;;;1.97;100.00;101356.94;5014464;28;20068;-66
2021/10/27 05:47:39;;;;;;;50.20;26.75;;;;;;;1.98;100.00;101366.56;5014947;28;20040;-65
2021/10/27 05:50:22;;;;;;;50.47;27.05;;;;;;;2.09;100.00;101358.59;5014570;28;20046;-65
2021/10/27 05:55:42;;;;;;;52.15;28.35;;;;;;;2.17;100.00;101373.44;4941884;28;20055;-64
2021/10/27 05:58:12;;;;;;;48.97;26.35;;;;;;;2.28;100.00;101379.50;5014614;28;20050;-67
2021/10/27 06:00:42;;;;;;;46.08;25.80;;;;;;;2.40;100.00;101382.91;5014642;28;20046;-67
2021/10/27 06:03:11;;;;;;;45.33;26.48;;;;;;;2.29;100.00;101386.50;5014506;28;20073;-68
2021/10/27 06:05:44;;;;;;;46.55;26.33;;;;;;;2.46;100.00;101393.41;5014798;28;20125;-68
2021/10/27 06:08:14;;;;;;;42.80;24.20;;;;;;;2.48;100.00;101394.25;5014471;28;20475;-66
2021/10/27 06:10:46;;;;;;;46.58;26.75;;;;;;;2.47;100.00;101397.78;5014689;28;20042;-66
2021/10/27 06:13:17;;;;;;;47.42;26.75;;;;;;;2.52;100.00;101398.63;5013853;28;20120;-68
2021/10/27 06:15:45;;;;;;;46.03;26.27;;;;;;;2.38;100.00;101403.97;5013618;28;20038;-67
2021/10/27 06:18:14;;;;;;;46.15;26.35;;;;;;;2.46;100.00;101390.75;5014072;28;20394;-66
2021/10/27 06:20:43;;;;;;;49.40;27.30;;;;;;;2.36;100.00;101391.72;5014227;28;20042;-67
2021/10/27 06:23:13;;;;;;;52.67;28.50;;;;;;;2.37;100.00;101393.47;5013726;28;20093;-67
2021/10/27 06:25:42;;;;;;;52.72;29.17;;;;;;;2.41;100.00;101401.31;4996524;28;20487;-66
2021/10/27 06:28:12;;;;;;;52.22;28.60;;;;;;;2.54;100.00;101405.63;5013425;28;20121;-65
2021/10/27 06:30:47;;;;;;;47.60;26.30;;;;;;;2.71;100.00;101410.72;5013227;28;20054;-65
2021/10/27 06:33:28;;;;;;;48.85;26.75;;;;;;;2.86;100.00;101420.22;5013739;28;20109;-65
2021/10/27 06:36:02;;;;;;;48.47;28.00;;;;;;;2.91;100.00;101422.84;5013481;28;20042;-65
2021/10/27 06:47:13;;;;;;;46.85;25.35;;;;;;;3.12;100.00;101425.25;4933834;29;20043;-65
2021/10/27 06:49:41;;;;;;;47.47;26.83;;;;;;;3.12;100.00;101428.75;4934028;29;20094;-65
2021/10/27 06:52:11;;;;;;;45.75;26.92;;;;;;;3.07;100.00;101429.69;4952348;28;20054;-66
2021/10/27 06:54:39;;;;;;;46.35;25.88;;;;;;;3.12;100.00;101427.88;4974530;28;20047;-65
2021/10/27 06:57:07;;;;;;;49.90;27.00;;;;;;;3.18;100.00;101435.69;4974244;28;20054;-64
2021/10/27 06:59:38;;;;;;;43.75;26.50;;;;;;;3.21;100.00;101429.53;4974631;28;20428;-64
2021/10/27 07:16:03;;;;;;;42.70;25.10;;;;;;;3.87;100.00;101441.03;4974370;28;20132;-67
2021/10/27 07:18:32;;;;;;;44.00;25.42;;;;;;;3.98;100.00;101430.31;4974189;28;20035;-65
2021/10/27 07:21:00;;;;;;;41.13;24.95;;;;;;;4.08;100.00;101438.97;4974363;28;20488;-71
2021/10/27 07:23:30;;;;;;;45.58;24.95;;;;;;;4.17;100.00;101449.41;4974336;28;20392;-65
2021/10/27 07:25:59;;;;;;;42.95;24.52;;;;;;;4.24;100.00;101451.91;4974758;28;20523;-65
2021/10/27 07:28:30;;;;;;;36.85;23.77;;;;;;;4.34;100.00;101443.84;4974341;28;20097;-65
2021/10/27 07:31:00;;;;;;;37.72;22.65;;;;;;;4.36;100.00;101436.78;4974487;28;20125;-66
2021/10/27 07:33:29;;;;;;;36.05;22.88;;;;;;;4.41;100.00;101443.72;4974403;28;20047;-66
2021/10/27 07:36:03;;;;;;;40.10;22.38;;;;;;;4.42;100.00;101440.19;4973927;28;20082;-65
2021/10/27 07:41:18;;;;;;;36.53;20.15;;;;;;;4.65;100.00;101446.88;4974036;28;19969;-65
2021/10/27 07:43:46;;;;;;;34.17;20.77;;;;;;;4.68;100.00;101446.81;4977648;28;20038;-65
2021/10/27 07:46:14;;;;;;;40.25;22.30;;;;;;;4.72;100.00;101449.38;5008749;28;20112;-66
2021/10/27 07:48:43;;;;;;;35.58;21.02;;;;;;;4.87;100.00;101451.75;5016900;28;20046;-65
2021/10/27 07:51:12;;;;;;;38.42;21.33;;;;;;;5.01;100.00;101447.97;5016662;28;20037;-66
2021/10/27 07:53:41;;;;;;;35.90;22.27;;;;;;;5.08;100.00;101452.28;5016628;28;20435;-65
2021/10/27 07:56:09;;;;;;;37.30;21.35;;;;;;;5.20;100.00;101461.75;5016825;28;20045;-66
2021/10/27 07:58:39;;;;;;;36.78;21.38;;;;;;;5.17;100.00;101462.69;5017132;28;20046;-65
2021/10/27 08:01:11;;;;;;;36.58;21.52;;;;;;;5.52;100.00;101459.38;5016777;28;20038;-66
2021/10/27 08:03:40;;;;;;;38.13;21.88;;;;;;;5.47;100.00;101459.44;5016729;28;20132;-65
2021/10/27 08:06:11;;;;;;;38.38;23.50;;;;;;;5.62;100.00;101468.84;5016377;28;20053;-65
2021/10/27 08:08:40;;;;;;;36.30;23.27;;;;;;;5.74;100.00;101462.44;5016894;28;20106;-66
2021/10/27 08:11:09;;;;;;;33.45;21.42;;;;;;;5.88;100.00;101454.19;5016632;28;20132;-65
2021/10/27 08:13:38;;;;;;;39.97;22.85;;;;;;;6.06;100.00;101456.47;5016770;28;20045;-66
2021/10/27 08:16:07;;;;;;;37.78;22.30;;;;;;;6.07;100.00;101447.59;5016508;28;20041;-66
2021/10/27 08:18:35;;;;;;;34.30;21.65;;;;;;;6.07;100.00;101447.59;5016674;28;20042;-66
2021/10/27 08:21:04;;;;;;;36.60;21.85;;;;;;;6.15;100.00;101445.66;5016601;28;20434;-65
2021/10/27 08:23:35;;;;;;;32.92;20.90;;;;;;;6.28;100.00;101449.78;4998759;28;20049;-65
2021/10/27 08:26:08;;;;;;;46.35;22.52;;;;;;;6.37;100.00;101455.75;5016412;28;20045;-65
2021/10/27 08:28:38;;;;;;;38.35;22.08;;;;;;;6.30;100.00;101455.91;5016610;28;20038;-65
2021/10/27 08:31:13;;;;;;;36.42;21.88;;;;;;;6.25;100.00;101457.78;5015914;28;20042;-68
2021/10/27 08:34:01;;;;;;;37.42;21.75;;;;;;;6.38;100.00;101457.53;5016162;28;20107;-65
2021/10/27 08:36:30;;;;;;;33.72;21.75;;;;;;;6.59;100.00;101455.22;5015778;28;20545;-65
2021/10/27 08:39:08;;;;;;;38.13;22.80;;;;;;;6.63;100.00;101456.00;5016298;28;20141;-65
2021/10/27 08:41:46;;;;;;;37.22;22.42;;;;;;;6.83;100.00;101461.66;5016161;28;20037;-66
2021/10/27 08:44:14;;;;;;;37.83;22.50;;;;;;;6.79;100.00;101454.72;5015919;28;20086;-65
2021/10/27 08:46:44;;;;;;;38.15;21.50;;;;;;;7.01;100.00;101465.63;5016432;28;20057;-65
2021/10/27 08:49:18;;;;;;;34.60;22.23;;;;;;;7.28;99.74;101448.09;5015919;28;20041;-65
2021/10/27 08:51:46;;;;;;;38.80;22.08;;;;;;;7.11;100.00;101442.38;5016350;28;20050;-65
2021/10/27 08:54:16;;;;;;;39.20;22.42;;;;;;;7.06;100.00;101445.16;5014749;28;20042;-65
2021/10/27 08:56:46;;;;;;;39.88;22.83;;;;;;;7.01;100.00;101440.88;5016789;28;20046;-65
2021/10/27 08:59:19;;;;;;;45.95;26.60;;;;;;;7.04;100.00;101443.44;5015921;28;20096;-66
2021/10/27 09:01:59;;;;;;;42.45;26.35;;;;;;;7.12;99.80;101438.81;5016031;28;20042;-64
2021/10/27 09:04:44;;;;;;;45.45;26.55;;;;;;;7.06;100.00;101446.94;5015601;28;20042;-66
2021/10/27 09:07:24;;;;;;;38.60;25.25;;;;;;;7.51;98.06;101438.59;5015508;28;20042;-65
2021/10/27 09:10:19;;;;;;;46.13;28.88;;;;;;;7.45;97.46;101429.06;5016191;28;20448;-66
2021/10/27 09:36:08;;;;;;;50.53;30.55;;;;;;;7.71;97.30;101442.44;5015353;28;20046;-66
2021/10/27 09:55:50;;;;;;;32.80;21.50;;;;;;;8.24;95.55;101426.63;5014812;28;20479;-66
2021/10/27 10:04:08;;;;;;;35.00;20.48;;;;;;;8.55;94.13;101434.53;5014727;28;20041;-66
2021/10/27 10:06:57;;;;;;;36.17;20.30;;;;;;;8.46;93.70;101432.16;5013348;28;20042;-66
2021/10/27 10:09:28;;;;;;;32.47;19.63;;;;;;;8.65;92.40;101426.25;5014402;28;20038;-66
2021/10/27 10:11:56;;;;;;;29.58;19.50;;;;;;;8.73;91.95;101434.84;5014528;28;20046;-65
2021/10/27 10:14:25;;;;;;;35.10;19.73;;;;;;;8.94;91.23;101431.44;5014254;28;20045;-66
2021/10/27 10:17:00;;;;;;;30.58;19.23;;;;;;;9.45;87.87;101431.34;5014444;28;20046;-66
2021/10/27 10:19:33;;;;;;;31.23;19.98;;;;;;;9.16;89.03;101435.06;5014004;28;20042;-67
2021/10/27 10:22:01;;;;;;;33.78;20.05;;;;;;;9.02;89.92;101434.69;5014494;28;20045;-65
2021/10/27 10:24:37;;;;;;;30.98;19.98;;;;;;;9.04;89.74;101432.84;5013911;28;20053;-66
2021/10/27 10:27:16;;;;;;;34.28;20.33;;;;;;;9.25;89.39;101427.69;5090671;28;20369;-65
2021/10/27 10:29:49;;;;;;;37.10;21.23;;;;;;;9.72;87.33;101429.47;5090860;28;20052;-66
2021/10/27 10:32:37;;;;;;;32.22;20.30;;;;;;;9.49;86.75;101432.13;5090253;28;20041;-65
2021/10/27 10:35:15;;;;;;;35.38;20.17;;;;;;;9.26;87.98;101429.41;5090294;28;20097;-67
2021/10/27 10:37:52;;;;;;;34.10;18.95;;;;;;;9.17;88.60;101430.66;5090383;28;20040;-66
2021/10/27 11:15:11;;;;;;;25.40;17.00;;;;;;;9.93;82.96;101379.78;5057730;28;20071;-72
2021/10/27 11:26:08;;;;;;;29.67;17.40;;;;;;;9.96;82.31;101376.16;5072691;28;20098;-66
2021/10/27 11:39:46;;;;;;;30.52;16.83;;;;;;;10.20;81.65;101356.47;5088371;28;20048;-67
2021/10/27 11:42:35;;;;;;;28.38;17.52;;;;;;;10.21;81.11;101347.56;5089495;28;20044;-68
2021/10/27 11:45:21;;;;;;;26.08;15.95;;;;;;;10.27;80.31;101357.16;5089761;28;20056;-69
2021/10/27 11:47:54;;;;;;;27.95;16.48;;;;;;;10.18;80.81;101355.69;5089318;28;20040;-67
2021/10/27 11:50:23;;;;;;;29.13;16.88;;;;;;;10.12;81.45;101341.72;5089414;28;20048;-72
2021/10/27 11:52:53;;;;;;;27.70;16.48;;;;;;;10.71;79.89;101347.28;5089528;28;20635;-68
2021/10/27 11:55:23;;;;;;;26.92;17.13;;;;;;;10.72;79.56;101337.47;5089520;28;20110;-73
2021/10/27 11:57:54;;;;;;;25.13;16.65;;;;;;;10.47;80.65;101334.97;5089303;28;20052;-67
2021/10/27 12:00:26;;;;;;;31.63;17.90;;;;;;;10.43;80.67;101344.03;5089056;28;20058;-72
2021/10/27 12:03:01;;;;;;;27.17;16.63;;;;;;;10.36;80.77;101335.44;5089685;28;20044;-66
2021/10/27 12:05:37;;;;;;;28.35;16.80;;;;;;;10.34;80.62;101331.09;5089099;28;20046;-66
2021/10/27 12:13:47;;;;;;;23.88;14.70;;;;;;;10.38;81.56;101309.56;5071761;28;20048;-67
2021/10/27 12:19:14;;;;;;;21.73;13.73;;;;;;;10.58;80.07;101320.22;5075583;28;20394;-66
2021/10/27 12:21:51;;;;;;;20.88;14.07;;;;;;;10.75;78.81;101311.50;5075397;28;20402;-66
2021/10/27 12:24:23;;;;;;;28.90;15.02;;;;;;;10.79;78.48;101315.75;5075517;28;20576;-66
2021/10/27 12:27:00;;;;;;;25.00;15.15;;;;;;;10.56;79.41;101305.22;5074024;28;20442;-66
2021/10/27 12:29:30;;;;;;;27.65;16.65;;;;;;;10.46;80.09;101310.09;5075293;28;20043;-67
2021/10/27 12:32:10;;;;;;;25.63;17.58;;;;;;;10.78;78.40;101311.34;5075389;28;20052;-67
2021/10/27 12:34:48;;;;;;;31.92;18.55;;;;;;;10.63;79.41;101309.38;5075349;28;20040;-66
2021/10/27 12:37:26;;;;;;;30.25;17.02;;;;;;;10.96;78.86;101308.81;5074786;28;20048;-66
2021/10/27 12:40:09;;;;;;;28.42;17.15;;;;;;;11.10;78.78;101301.91;5074867;28;20098;-66
2021/10/27 12:42:37;;;;;;;31.97;17.00;;;;;;;10.85;79.77;101296.81;5075087;28;20470;-67
2021/10/27 12:45:06;;;;;;;25.88;15.75;;;;;;;10.74;79.95;101304.44;5075103;28;20508;-67
2021/10/27 12:47:39;;;;;;;25.95;15.95;;;;;;;10.80;78.88;101293.47;5074789;28;20434;-67
2021/10/27 12:50:12;;;;;;;23.92;15.35;;;;;;;10.74;79.21;101304.44;5075172;28;20048;-67
2021/10/27 12:52:44;;;;;;;23.25;15.15;;;;;;;10.75;78.80;101299.97;5074760;28;20064;-67
2021/10/27 12:55:30;;;;;;;26.33;16.90;;;;;;;10.71;79.36;101299.25;5075122;28;20055;-67
2021/10/27 12:58:06;;;;;;;24.02;15.98;;;;;;;10.69;78.93;101298.41;5075096;28;20048;-67
2021/10/27 13:00:58;;;;;;;24.42;15.85;;;;;;;10.63;79.50;101292.50;5074796;28;20127;-67
2021/10/27 13:03:50;;;;;;;26.38;16.15;;;;;;;10.68;78.86;101298.50;5074685;28;20041;-67
2021/10/27 13:06:33;;;;;;;28.23;16.00;;;;;;;10.67;79.32;101294.09;5074697;28;20138;-66
2021/10/27 13:14:47;;;;;;;26.17;15.15;;;;;;;10.39;81.05;101292.63;5073170;28;20389;-72
2021/10/27 13:31:13;;;;;;;25.63;16.50;;;;;;;10.83;79.73;101298.69;5073800;28;20037;-67
2021/10/27 13:33:42;;;;;;;26.15;17.05;;;;;;;10.77;80.05;101293.59;5074140;28;20456;-67
2021/10/27 13:36:12;;;;;;;23.83;15.98;;;;;;;10.95;79.09;101291.94;5074218;28;20436;-67
2021/10/27 13:38:41;;;;;;;24.20;15.95;;;;;;;10.99;78.88;101292.63;5073570;28;20040;-67
2021/10/27 13:41:10;;;;;;;23.15;16.20;;;;;;;10.82;79.25;101302.28;5072863;28;20037;-67
2021/10/27 13:43:42;;;;;;;28.10;16.92;;;;;;;10.76;79.12;101299.88;5069743;28;20041;-67
2021/10/27 13:46:30;;;;;;;23.63;16.02;;;;;;;10.81;78.07;101299.69;5072729;28;20047;-68
2021/10/27 13:49:21;;;;;;;24.35;16.63;;;;;;;10.70;78.71;101297.47;5072382;28;20543;-67
2021/10/27 14:06:08;;;;;;;25.45;15.80;;;;;;;10.72;79.65;101289.44;5070710;28;20036;-69
2021/10/27 14:11:28;;;;;;;29.98;17.02;;;;;;;10.58;80.28;101282.88;5070355;28;20439;-66
2021/10/27 14:14:02;;;;;;;24.30;16.50;;;;;;;10.56;79.99;101279.41;5072512;28;20045;-67
2021/10/27 14:19:34;;;;;;;32.05;20.13;;;;;;;10.49;80.52;101279.75;5073041;28;20047;-66
2021/10/27 14:47:53;;;;;;;28.75;17.70;;;;;;;10.57;81.09;101274.94;5070848;28;20037;-69
2021/10/27 14:50:45;;;;;;;26.55;16.83;;;;;;;10.57;80.20;101275.81;5072731;28;20075;-68